Time;durP1;ratioP1;P1;durP2;ratioP2;P2;SDS_P1;SDS_P2;PMS_P1;PMS_P2;Temp;Humidity;BMP_temperature;BMP_pressure;BME280_temperature;BME280_humidity;BME280_pressure;Samples;Min_cycle;Max_cycle;Signal;HPM_P1;HPM_P2
2021/03/05 00:01:37;;;;;;;44.92;27.50;;;7.90;99.90;;;;;;6166989;28;20046;-79
2021/03/05 00:04:38;;;;;;;42.22;26.48;;;7.80;99.90;;;;;;6161519;28;20074;-80
2021/03/05 00:07:40;;;;;;;40.42;25.30;;;7.60;99.90;;;;;;6164049;28;20039;-80
2021/03/05 00:10:42;;;;;;;42.08;25.52;;;7.50;99.90;;;;;;6167851;28;20046;-80
2021/03/05 00:13:44;;;;;;;42.72;27.58;;;7.40;99.90;;;;;;6159367;28;23182;-80
2021/03/05 00:16:46;;;;;;;42.35;26.38;;;7.30;99.90;;;;;;6182736;28;20046;-80
2021/03/05 00:19:47;;;;;;;34.10;21.73;;;7.20;99.90;;;;;;6203556;28;20038;-78
2021/03/05 00:22:49;;;;;;;31.38;20.35;;;7.10;99.90;;;;;;6206523;28;20082;-80
2021/03/05 00:25:50;;;;;;;33.10;20.67;;;6.90;99.90;;;;;;6205545;28;20043;-80
2021/03/05 00:28:52;;;;;;;28.48;17.75;;;6.80;99.90;;;;;;6205690;28;20038;-78
2021/03/05 00:31:54;;;;;;;30.73;18.42;;;6.70;99.90;;;;;;6205230;28;20030;-78
2021/03/05 00:34:55;;;;;;;28.83;18.70;;;6.60;99.90;;;;;;6196173;28;20027;-79
2021/03/05 00:37:57;;;;;;;29.08;18.23;;;6.50;99.90;;;;;;6190805;28;20027;-78
2021/03/05 00:40:58;;;;;;;30.05;19.70;;;6.40;99.90;;;;;;6174199;28;20394;-78
2021/03/05 00:44:00;;;;;;;32.17;21.05;;;6.30;99.90;;;;;;6164339;28;20066;-79
2021/03/05 00:47:01;;;;;;;27.45;17.50;;;6.20;99.90;;;;;;6151762;29;20110;-79
2021/03/05 00:50:05;;;;;;;36.65;20.30;;;6.20;99.90;;;;;;6156106;28;20130;-79
2021/03/05 00:53:06;;;;;;;33.53;18.27;;;6.10;99.90;;;;;;6151218;28;20585;-79
2021/03/05 00:56:07;;;;;;;34.00;19.85;;;6.10;99.90;;;;;;6155769;28;20110;-79
2021/03/05 00:59:10;;;;;;;32.38;19.88;;;6.10;99.90;;;;;;6156919;28;20058;-79
2021/03/05 01:02:11;;;;;;;37.15;19.83;;;6.10;99.90;;;;;;6156666;28;20075;-79
2021/03/05 01:05:12;;;;;;;38.63;21.15;;;6.00;99.90;;;;;;6157578;28;20078;-81
2021/03/05 01:08:14;;;;;;;38.42;20.52;;;6.00;99.90;;;;;;6179829;28;20051;-79
2021/03/05 01:11:15;;;;;;;38.28;21.33;;;6.00;99.90;;;;;;6157127;28;20047;-79
2021/03/05 01:14:18;;;;;;;48.25;25.80;;;5.90;99.90;;;;;;6163921;28;20789;-79
2021/03/05 01:17:19;;;;;;;36.72;19.67;;;6.00;99.90;;;;;;6180605;28;20177;-79
2021/03/05 01:20:25;;;;;;;41.88;21.77;;;5.90;99.90;;;;;;6180536;28;20457;-80
2021/03/05 01:23:26;;;;;;;42.22;20.67;;;5.80;99.90;;;;;;6175139;28;20051;-79
2021/03/05 01:26:27;;;;;;;37.03;19.63;;;5.80;99.90;;;;;;6173532;28;20043;-77
2021/03/05 01:29:30;;;;;;;40.67;20.40;;;5.80;99.90;;;;;;6166965;28;20454;-78
2021/03/05 01:32:31;;;;;;;41.38;20.33;;;5.60;99.90;;;;;;6175346;28;20448;-78
2021/03/05 01:35:33;;;;;;;44.22;22.23;;;5.60;99.90;;;;;;6168456;28;20827;-78
2021/03/05 01:38:34;;;;;;;45.30;24.73;;;5.50;99.90;;;;;;6173593;28;20046;-79
2021/03/05 01:41:37;;;;;;;40.15;20.67;;;5.50;99.90;;;;;;6180543;28;20440;-78
2021/03/05 01:44:39;;;;;;;37.47;21.58;;;5.50;99.90;;;;;;6172969;28;20055;-79
2021/03/05 01:47:40;;;;;;;39.63;21.63;;;5.50;99.90;;;;;;6176661;28;20455;-81
2021/03/05 01:50:51;;;;;;;48.35;22.13;;;5.50;99.90;;;;;;6169817;28;20077;-80
2021/03/05 01:53:52;;;;;;;35.30;19.75;;;5.50;99.90;;;;;;6178661;28;20070;-79
2021/03/05 01:56:54;;;;;;;33.28;17.67;;;5.50;99.90;;;;;;6178910;28;20094;-78
2021/03/05 01:59:56;;;;;;;33.20;19.00;;;5.40;99.90;;;;;;6165713;28;20066;-80
2021/03/05 02:02:58;;;;;;;31.90;20.75;;;5.40;99.90;;;;;;6180603;28;20142;-80
2021/03/05 02:05:59;;;;;;;34.88;18.10;;;5.40;99.90;;;;;;6173149;28;20097;-81
2021/03/05 02:09:02;;;;;;;32.47;18.85;;;5.40;99.90;;;;;;6181357;28;20050;-80
2021/03/05 02:12:04;;;;;;;34.90;19.88;;;5.40;99.90;;;;;;6182015;28;20051;-79
2021/03/05 02:15:08;;;;;;;35.92;19.65;;;5.30;99.90;;;;;;6182061;28;20599;-80
2021/03/05 02:18:19;;;;;;;33.00;19.88;;;5.30;99.90;;;;;;6191573;28;20106;-80
2021/03/05 02:21:38;;;;;;;35.33;21.17;;;5.30;99.90;;;;;;6168793;28;20074;-80
2021/03/05 02:25:16;;;;;;;35.95;17.95;;;5.20;99.90;;;;;;6176228;28;20101;-80
2021/03/05 02:28:50;;;;;;;37.53;20.55;;;5.20;99.90;;;;;;6165357;28;20513;-79
2021/03/05 02:31:57;;;;;;;31.15;20.40;;;5.20;99.90;;;;;;6171036;28;20054;-78
2021/03/05 02:35:00;;;;;;;38.97;22.10;;;5.20;99.90;;;;;;6182446;28;20130;-78
2021/03/05 02:38:03;;;;;;;31.55;17.27;;;5.20;99.90;;;;;;6182242;28;20191;-77
2021/03/05 02:41:06;;;;;;;27.58;17.33;;;5.20;99.90;;;;;;6162745;28;20057;-78
2021/03/05 02:44:12;;;;;;;27.48;16.30;;;5.20;99.90;;;;;;6158463;28;20043;-77
2021/03/05 02:47:18;;;;;;;27.73;16.02;;;5.20;99.90;;;;;;6175506;28;20054;-81
2021/03/05 02:50:22;;;;;;;26.38;14.05;;;5.20;99.90;;;;;;6160973;28;20509;-79
2021/03/05 02:53:26;;;;;;;27.45;18.52;;;5.20;99.90;;;;;;6178649;28;20130;-80
2021/03/05 02:56:31;;;;;;;33.15;18.52;;;5.30;99.90;;;;;;6164509;28;20426;-80
2021/03/05 02:59:35;;;;;;;29.65;16.88;;;5.30;99.90;;;;;;6174753;28;20051;-79
2021/03/05 03:02:39;;;;;;;31.75;18.30;;;5.30;99.90;;;;;;6175472;28;20070;-78
2021/03/05 03:05:42;;;;;;;26.85;16.33;;;5.30;99.90;;;;;;6171922;28;20094;-81
2021/03/05 03:08:45;;;;;;;24.60;14.32;;;5.30;99.90;;;;;;6166998;28;20058;-80
2021/03/05 03:11:46;;;;;;;27.05;15.55;;;5.30;99.90;;;;;;6154252;28;20051;-80
2021/03/05 03:14:49;;;;;;;24.60;15.07;;;5.30;99.90;;;;;;6160993;28;20075;-80
2021/03/05 03:17:53;;;;;;;27.35;17.60;;;5.30;99.90;;;;;;6159192;28;20074;-79
2021/03/05 03:20:56;;;;;;;25.77;16.17;;;5.40;99.90;;;;;;6142076;28;20685;-80
2021/03/05 03:23:57;;;;;;;25.60;15.85;;;5.40;99.90;;;;;;6159309;28;20065;-81
2021/03/05 03:26:59;;;;;;;28.85;16.98;;;5.40;99.90;;;;;;6172976;28;20050;-80
2021/03/05 03:30:00;;;;;;;23.98;16.20;;;5.50;99.90;;;;;;6173384;28;20038;-80
2021/03/05 03:33:03;;;;;;;27.83;16.92;;;5.50;99.90;;;;;;6170976;28;20099;-80
2021/03/05 03:36:05;;;;;;;23.85;14.05;;;5.50;99.90;;;;;;6172698;28;20047;-80
2021/03/05 03:39:08;;;;;;;20.60;14.63;;;5.50;99.90;;;;;;6182443;28;20109;-79
2021/03/05 03:42:10;;;;;;;28.92;15.75;;;5.30;99.90;;;;;;6181351;28;20039;-81
2021/03/05 03:45:14;;;;;;;23.95;13.98;;;5.40;99.90;;;;;;6181705;28;20444;-81
2021/03/05 03:48:17;;;;;;;23.17;13.75;;;5.40;99.90;;;;;;6176128;28;20080;-80
2021/03/05 03:51:23;;;;;;;25.80;14.43;;;5.50;99.90;;;;;;6174639;28;20043;-79
2021/03/05 03:54:25;;;;;;;17.30;14.13;;;5.50;99.90;;;;;;6180841;28;20073;-80
2021/03/05 03:57:29;;;;;;;20.05;13.82;;;5.50;99.90;;;;;;6176843;28;20058;-81
2021/03/05 04:00:31;;;;;;;20.83;14.00;;;5.50;99.90;;;;;;6169721;28;20501;-82
2021/03/05 04:03:34;;;;;;;26.23;15.30;;;5.50;99.90;;;;;;6173882;28;20444;-80
2021/03/05 04:06:37;;;;;;;20.25;13.52;;;5.50;99.90;;;;;;6153473;28;20588;-81
2021/03/05 04:09:40;;;;;;;21.40;14.45;;;5.50;99.90;;;;;;6166167;28;20137;-80
2021/03/05 04:12:43;;;;;;;22.10;15.38;;;5.50;99.90;;;;;;6156753;28;20051;-80
2021/03/05 04:15:45;;;;;;;22.75;14.85;;;5.50;99.90;;;;;;6155639;28;20043;-80
2021/03/05 04:18:47;;;;;;;21.55;14.70;;;5.50;99.90;;;;;;6172707;28;20057;-78
2021/03/05 04:21:50;;;;;;;19.67;12.63;;;5.50;99.90;;;;;;6171834;28;20039;-81
2021/03/05 04:24:51;;;;;;;23.58;15.80;;;5.50;99.90;;;;;;6166299;28;20549;-80
2021/03/05 04:27:52;;;;;;;22.08;14.57;;;5.50;99.90;;;;;;6175049;28;20497;-80
2021/03/05 04:30:54;;;;;;;22.00;13.77;;;5.50;99.90;;;;;;6172554;28;20047;-80
2021/03/05 04:33:56;;;;;;;24.35;15.40;;;5.50;99.90;;;;;;6178221;28;20102;-81
2021/03/05 04:36:57;;;;;;;31.30;17.33;;;5.50;99.90;;;;;;6162264;28;20743;-79
2021/03/05 04:39:59;;;;;;;26.58;16.17;;;5.50;99.90;;;;;;6169001;28;20043;-80
2021/03/05 04:43:00;;;;;;;26.58;15.82;;;5.50;99.90;;;;;;6157488;28;20047;-80
2021/03/05 04:46:01;;;;;;;30.70;18.25;;;5.50;99.90;;;;;;6155708;28;20055;-79
2021/03/05 04:49:04;;;;;;;21.50;14.38;;;5.60;99.90;;;;;;6161306;28;20134;-80
2021/03/05 04:52:05;;;;;;;21.55;15.00;;;5.60;99.90;;;;;;6178329;28;20042;-82
2021/03/05 04:55:08;;;;;;;24.45;14.10;;;5.50;99.90;;;;;;6169876;28;20070;-82
2021/03/05 04:58:10;;;;;;;21.55;15.20;;;5.50;99.90;;;;;;6165758;28;20046;-80
2021/03/05 05:01:11;;;;;;;20.88;14.38;;;5.50;99.90;;;;;;6171046;28;20050;-80
2021/03/05 05:04:13;;;;;;;20.05;14.55;;;5.50;99.90;;;;;;6170419;28;20062;-83
2021/03/05 05:07:15;;;;;;;22.13;14.80;;;5.50;99.90;;;;;;6171176;28;20047;-81
2021/03/05 05:10:17;;;;;;;23.48;15.00;;;5.50;99.90;;;;;;6175033;28;20078;-81
2021/03/05 05:13:19;;;;;;;23.30;16.02;;;5.40;99.90;;;;;;6179041;28;20042;-82
2021/03/05 05:16:20;;;;;;;25.77;17.20;;;5.40;99.90;;;;;;6177362;28;20139;-80
2021/03/05 05:19:23;;;;;;;22.92;14.10;;;5.40;99.90;;;;;;6168452;28;20051;-81
2021/03/05 05:22:24;;;;;;;28.92;15.38;;;5.40;99.90;;;;;;6171545;28;20672;-81
2021/03/05 05:25:26;;;;;;;25.15;15.70;;;5.40;99.90;;;;;;6174675;28;20051;-81
2021/03/05 05:28:27;;;;;;;28.67;17.77;;;5.40;99.90;;;;;;6170736;28;20081;-81
2021/03/05 05:31:28;;;;;;;29.40;15.88;;;5.40;99.90;;;;;;6169698;28;20133;-78
2021/03/05 05:34:31;;;;;;;20.65;13.63;;;5.40;99.90;;;;;;6161053;28;20065;-78
2021/03/05 05:37:32;;;;;;;24.52;16.13;;;5.40;99.90;;;;;;6172318;28;20109;-80
2021/03/05 05:40:33;;;;;;;20.98;14.57;;;5.50;99.90;;;;;;6163655;28;20059;-79
2021/03/05 05:43:36;;;;;;;23.58;16.08;;;5.50;99.90;;;;;;6170099;28;20053;-80
2021/03/05 05:46:39;;;;;;;30.70;16.17;;;5.50;99.90;;;;;;6181421;28;20059;-78
2021/03/05 05:49:43;;;;;;;23.45;16.35;;;5.60;99.90;;;;;;6166520;28;20058;-80
2021/03/05 05:52:47;;;;;;;20.27;14.77;;;5.60;99.90;;;;;;6169500;28;20039;-80
2021/03/05 05:55:48;;;;;;;20.30;14.93;;;5.60;99.90;;;;;;6178995;28;20085;-80
2021/03/05 05:58:51;;;;;;;25.42;15.52;;;5.60;99.90;;;;;;6180581;28;20583;-80
2021/03/05 06:01:53;;;;;;;24.58;15.85;;;5.70;99.90;;;;;;6178364;28;20042;-78
2021/03/05 06:04:56;;;;;;;37.35;16.40;;;5.70;99.90;;;;;;6182960;28;20505;-80
2021/03/05 06:07:57;;;;;;;25.52;16.38;;;5.70;99.90;;;;;;6175471;28;20063;-80
2021/03/05 06:10:59;;;;;;;25.88;18.05;;;5.70;99.90;;;;;;6172950;28;20051;-80
2021/03/05 06:14:02;;;;;;;24.75;15.75;;;5.60;99.90;;;;;;6178458;28;20046;-80
2021/03/05 06:17:03;;;;;;;28.88;17.55;;;5.70;99.90;;;;;;6176093;28;20053;-80
2021/03/05 06:20:07;;;;;;;25.45;16.52;;;5.60;99.90;;;;;;6180120;28;20055;-80
2021/03/05 06:23:11;;;;;;;25.08;15.52;;;5.70;99.90;;;;;;6190054;28;20047;-79
2021/03/05 06:26:12;;;;;;;26.88;16.63;;;5.70;99.90;;;;;;6183674;28;20050;-79
2021/03/05 06:29:14;;;;;;;25.52;16.20;;;5.70;99.90;;;;;;6155514;23;20138;-78
2021/03/05 06:32:17;;;;;;;29.45;15.93;;;5.70;99.90;;;;;;6141036;28;20560;-78
2021/03/05 06:35:25;;;;;;;30.52;16.52;;;5.80;99.90;;;;;;6154948;28;20087;-79
2021/03/05 06:38:40;;;;;;;26.20;15.55;;;5.80;99.90;;;;;;6132998;29;20551;-78
2021/03/05 06:41:41;;;;;;;28.17;19.05;;;5.70;99.90;;;;;;6152812;28;20052;-78
2021/03/05 06:44:45;;;;;;;29.67;16.80;;;5.70;99.90;;;;;;6156382;28;20075;-78
2021/03/05 06:48:04;;;;;;;33.90;21.13;;;5.70;99.90;;;;;;6154120;28;20068;-79
2021/03/05 06:51:08;;;;;;;28.08;17.55;;;5.70;99.90;;;;;;6154084;28;20754;-78
2021/03/05 06:54:12;;;;;;;32.92;19.80;;;5.60;99.90;;;;;;6154135;28;20054;-78
2021/03/05 06:57:25;;;;;;;37.45;20.50;;;5.60;99.90;;;;;;6153967;28;20134;-78
2021/03/05 07:00:27;;;;;;;31.50;18.48;;;5.40;99.90;;;;;;6153831;28;20049;-78
2021/03/05 07:03:28;;;;;;;34.13;19.75;;;5.40;99.90;;;;;;6150998;28;20082;-78
2021/03/05 07:06:31;;;;;;;30.95;19.55;;;5.40;99.90;;;;;;6146803;28;20062;-78
2021/03/05 07:09:33;;;;;;;34.97;21.35;;;5.40;99.90;;;;;;6148553;28;20523;-77
2021/03/05 07:12:35;;;;;;;35.35;20.55;;;5.40;99.90;;;;;;6150541;28;20145;-78
2021/03/05 07:15:54;;;;;;;34.92;20.33;;;5.40;99.90;;;;;;6154220;28;20047;-79
2021/03/05 07:18:55;;;;;;;43.72;22.80;;;5.50;99.90;;;;;;6146191;28;20082;-79
2021/03/05 07:21:59;;;;;;;39.70;21.55;;;5.30;99.90;;;;;;6145541;28;20081;-79
2021/03/05 07:25:01;;;;;;;34.28;20.90;;;5.30;99.90;;;;;;6144163;29;20053;-79
2021/03/05 07:28:03;;;;;;;35.83;19.17;;;5.30;99.90;;;;;;6142826;29;20521;-80
2021/03/05 07:31:05;;;;;;;34.05;19.23;;;5.20;99.90;;;;;;6150341;29;20081;-79
2021/03/05 07:34:10;;;;;;;40.95;21.05;;;5.20;99.90;;;;;;6139375;29;20398;-79
2021/03/05 07:37:14;;;;;;;38.88;21.95;;;5.20;99.90;;;;;;6151300;28;20129;-79
2021/03/05 07:40:18;;;;;;;34.80;22.60;;;5.20;99.90;;;;;;6149390;28;20149;-79
2021/03/05 07:43:20;;;;;;;36.15;21.50;;;5.20;99.90;;;;;;6141614;28;20046;-78
2021/03/05 07:46:21;;;;;;;35.45;20.40;;;5.20;99.90;;;;;;6148342;29;20059;-79
2021/03/05 07:49:26;;;;;;;31.42;19.13;;;5.00;99.90;;;;;;6137740;29;20430;-79
2021/03/05 07:52:29;;;;;;;32.15;19.38;;;5.00;99.90;;;;;;6141972;28;20109;-79
2021/03/05 07:55:37;;;;;;;37.35;20.85;;;5.00;99.90;;;;;;6136548;28;20126;-79
2021/03/05 07:58:45;;;;;;;28.88;19.08;;;4.90;99.90;;;;;;6146577;29;20461;-79
2021/03/05 08:01:57;;;;;;;27.92;17.98;;;4.90;99.90;;;;;;6140267;29;20039;-79
2021/03/05 08:05:03;;;;;;;31.27;19.65;;;4.90;99.90;;;;;;6142283;28;20131;-79
2021/03/05 08:08:13;;;;;;;35.42;18.90;;;5.00;99.90;;;;;;6134100;29;20123;-79
2021/03/05 08:11:25;;;;;;;36.78;21.65;;;5.00;99.90;;;;;;6143599;28;20422;-79
2021/03/05 08:14:27;;;;;;;36.85;20.85;;;5.00;99.90;;;;;;6146978;29;20183;-79
2021/03/05 08:17:32;;;;;;;32.28;21.13;;;4.90;99.90;;;;;;6144254;28;20050;-79
2021/03/05 08:20:55;;;;;;;33.00;20.58;;;5.00;99.90;;;;;;6152449;28;20412;-78
2021/03/05 08:24:23;;;;;;;35.35;19.20;;;5.00;99.90;;;;;;6144591;29;20054;-79
2021/03/05 08:27:37;;;;;;;31.25;18.85;;;4.90;99.90;;;;;;6138604;28;20078;-79
2021/03/05 08:30:42;;;;;;;29.67;19.10;;;5.00;99.90;;;;;;6146984;29;20134;-79
2021/03/05 08:33:43;;;;;;;33.35;18.42;;;5.00;99.90;;;;;;6149504;28;20402;-79
2021/03/05 08:36:48;;;;;;;30.27;18.52;;;5.00;99.90;;;;;;6136747;28;20074;-79
2021/03/05 08:39:50;;;;;;;26.75;16.33;;;5.10;99.90;;;;;;6146780;29;20047;-79
2021/03/05 08:42:51;;;;;;;23.80;15.70;;;5.20;99.90;;;;;;6148040;29;20141;-79
2021/03/05 08:45:54;;;;;;;27.75;16.77;;;5.20;99.90;;;;;;6139673;29;20398;-79
2021/03/05 08:48:56;;;;;;;24.00;15.60;;;5.30;99.90;;;;;;6144593;29;20094;-79
2021/03/05 08:51:57;;;;;;;24.20;15.55;;;5.30;99.90;;;;;;6141184;28;20079;-79
2021/03/05 08:55:03;;;;;;;23.02;15.82;;;5.30;99.90;;;;;;6146205;29;20566;-78
2021/03/05 08:58:04;;;;;;;18.75;14.40;;;5.30;99.90;;;;;;6143939;28;20135;-78
2021/03/05 09:01:06;;;;;;;26.10;13.85;;;5.30;99.90;;;;;;6138153;29;20130;-79
2021/03/05 09:04:12;;;;;;;22.42;14.90;;;5.40;99.90;;;;;;6139204;29;20056;-79
2021/03/05 09:07:13;;;;;;;22.30;14.52;;;5.50;99.90;;;;;;6141866;29;20083;-79
2021/03/05 09:10:16;;;;;;;21.95;14.35;;;5.40;99.90;;;;;;6135226;29;20043;-79
2021/03/05 09:13:19;;;;;;;24.75;13.23;;;5.50;99.90;;;;;;6145390;28;20043;-79
2021/03/05 09:16:23;;;;;;;17.23;11.82;;;5.50;99.90;;;;;;6143644;28;20130;-79
2021/03/05 09:19:35;;;;;;;19.77;12.10;;;5.40;99.90;;;;;;6140025;28;20051;-79
2021/03/05 09:22:37;;;;;;;20.83;11.75;;;5.40;99.90;;;;;;6153618;29;20043;-79
2021/03/05 09:25:47;;;;;;;22.70;13.57;;;5.40;99.90;;;;;;6151682;28;20047;-78
2021/03/05 09:28:50;;;;;;;20.25;12.80;;;5.30;99.90;;;;;;6137916;29;20066;-78
2021/03/05 09:31:58;;;;;;;18.02;10.20;;;5.40;99.90;;;;;;6155006;28;20039;-79
2021/03/05 09:35:00;;;;;;;19.08;10.70;;;5.60;99.90;;;;;;6149167;29;20043;-79
2021/03/05 09:38:02;;;;;;;18.88;11.13;;;5.70;99.90;;;;;;6124082;28;20059;-79
2021/03/05 09:41:12;;;;;;;17.73;11.02;;;5.80;99.90;;;;;;6126493;29;20055;-80
2021/03/05 09:44:14;;;;;;;15.27;10.40;;;5.70;99.70;;;;;;6131687;28;20071;-79
2021/03/05 09:47:15;;;;;;;16.83;9.52;;;5.70;99.60;;;;;;6128118;28;20058;-79
2021/03/05 09:50:20;;;;;;;15.93;11.10;;;5.60;98.70;;;;;;6139321;28;20048;-79
2021/03/05 09:53:30;;;;;;;16.10;10.32;;;5.40;98.00;;;;;;6147852;28;20047;-79
2021/03/05 09:56:41;;;;;;;16.63;11.13;;;5.30;97.50;;;;;;6147490;29;20062;-79
2021/03/05 09:59:44;;;;;;;19.90;11.75;;;5.30;98.00;;;;;;6147120;29;20047;-79
2021/03/05 10:02:46;;;;;;;20.35;11.18;;;5.30;98.60;;;;;;6144295;29;20545;-78
2021/03/05 10:05:47;;;;;;;25.05;11.85;;;5.30;98.10;;;;;;6152183;28;20445;-79
2021/03/05 10:08:58;;;;;;;24.02;14.55;;;5.30;98.20;;;;;;6150927;28;20054;-79
2021/03/05 10:12:00;;;;;;;17.73;11.75;;;5.40;98.90;;;;;;6146406;28;20094;-79
2021/03/05 10:15:04;;;;;;;16.65;10.68;;;5.50;99.30;;;;;;6142845;29;20062;-79
2021/03/05 10:18:06;;;;;;;20.80;12.60;;;5.60;99.20;;;;;;6145242;28;20039;-80
2021/03/05 10:21:09;;;;;;;23.15;13.23;;;5.60;98.60;;;;;;6149424;28;20078;-78
2021/03/05 10:24:19;;;;;;;22.30;13.45;;;5.60;99.40;;;;;;6150058;28;20047;-79
2021/03/05 10:27:23;;;;;;;15.30;10.68;;;5.70;98.30;;;;;;6139518;28;20086;-78
2021/03/05 10:30:25;;;;;;;17.13;11.40;;;5.70;97.10;;;;;;6150053;28;20055;-78
2021/03/05 10:33:37;;;;;;;20.73;13.88;;;5.70;96.50;;;;;;6149482;28;20047;-79
2021/03/05 10:36:38;;;;;;;23.60;18.40;;;5.80;97.10;;;;;;6144495;28;20485;-79
2021/03/05 10:39:46;;;;;;;21.25;13.93;;;5.90;97.40;;;;;;6137181;29;20054;-79
2021/03/05 10:42:48;;;;;;;18.00;13.43;;;6.00;97.70;;;;;;6147887;29;20136;-79
2021/03/05 10:45:49;;;;;;;19.30;13.30;;;6.10;97.40;;;;;;6143530;28;20722;-79
2021/03/05 10:48:50;;;;;;;20.23;11.13;;;6.00;96.10;;;;;;6143237;28;20039;-79
2021/03/05 10:51:52;;;;;;;19.77;12.52;;;5.90;96.20;;;;;;6144187;28;20130;-79
2021/03/05 10:54:54;;;;;;;20.88;11.55;;;6.00;96.80;;;;;;6140364;29;20056;-79
2021/03/05 10:57:56;;;;;;;17.85;11.48;;;6.10;96.40;;;;;;6146264;28;20051;-78
2021/03/05 11:00:57;;;;;;;20.73;11.85;;;6.20;95.70;;;;;;6144824;28;20130;-79
2021/03/05 11:03:58;;;;;;;19.23;12.15;;;6.30;95.30;;;;;;6150462;28;20505;-78
2021/03/05 11:07:01;;;;;;;34.13;13.02;;;6.40;95.70;;;;;;6135187;29;20075;-79
2021/03/05 11:10:04;;;;;;;26.35;12.38;;;6.50;94.50;;;;;;6148221;28;20051;-79
2021/03/05 11:13:06;;;;;;;18.85;11.65;;;6.60;93.00;;;;;;6143699;29;20069;-79
2021/03/05 11:16:07;;;;;;;18.73;12.85;;;6.60;92.60;;;;;;6151979;28;20051;-78
2021/03/05 11:19:09;;;;;;;19.42;12.48;;;6.70;93.30;;;;;;6168038;28;20035;-78
2021/03/05 11:22:10;;;;;;;17.65;11.60;;;6.80;92.90;;;;;;6156751;29;20638;-79
2021/03/05 11:25:13;;;;;;;26.92;14.93;;;6.80;90.30;;;;;;6144010;28;20055;-79
2021/03/05 11:28:16;;;;;;;21.42;14.07;;;6.80;92.30;;;;;;6148155;28;20119;-79
2021/03/05 11:31:17;;;;;;;20.35;11.98;;;6.90;91.70;;;;;;6141788;28;20134;-78
2021/03/05 11:34:19;;;;;;;25.42;12.18;;;6.80;91.10;;;;;;6135107;29;20075;-78
2021/03/05 11:37:20;;;;;;;25.90;14.63;;;6.80;91.30;;;;;;6146259;28;20513;-78
2021/03/05 11:40:22;;;;;;;20.77;15.20;;;6.90;91.50;;;;;;6139490;28;20058;-78
2021/03/05 11:43:24;;;;;;;20.98;13.43;;;6.90;90.50;;;;;;6147705;29;20134;-78
2021/03/05 11:46:25;;;;;;;20.50;12.40;;;7.10;91.10;;;;;;6131429;29;20082;-78
2021/03/05 11:49:27;;;;;;;20.42;11.60;;;7.20;91.30;;;;;;6135726;28;20081;-78
2021/03/05 11:52:28;;;;;;;20.15;14.15;;;7.30;88.50;;;;;;6137409;28;20497;-77
2021/03/05 11:55:32;;;;;;;22.42;13.10;;;7.30;89.20;;;;;;6144210;28;20105;-78
2021/03/05 11:58:35;;;;;;;25.27;14.02;;;7.30;88.90;;;;;;6144944;28;20099;-78
2021/03/05 12:01:36;;;;;;;22.02;13.18;;;7.40;89.10;;;;;;6145248;28;20050;-77
2021/03/05 12:04:37;;;;;;;26.42;13.07;;;7.40;89.20;;;;;;6151305;28;20106;-78
2021/03/05 12:07:39;;;;;;;20.90;13.23;;;7.50;88.80;;;;;;6146524;28;20047;-78
2021/03/05 12:10:40;;;;;;;23.58;13.02;;;7.50;86.50;;;;;;6138978;29;20055;-78
2021/03/05 12:13:42;;;;;;;18.83;13.35;;;7.50;87.00;;;;;;6137723;28;20440;-79
2021/03/05 12:16:44;;;;;;;21.05;12.95;;;7.60;87.70;;;;;;6140193;28;20043;-79
2021/03/05 12:19:45;;;;;;;19.73;11.95;;;7.60;87.30;;;;;;6138138;28;20067;-79
2021/03/05 12:22:46;;;;;;;27.75;19.98;;;7.60;87.30;;;;;;6142031;29;20131;-78
2021/03/05 12:25:48;;;;;;;96.35;63.50;;;7.70;86.20;;;;;;6149008;28;20051;-78
2021/03/05 12:28:50;;;;;;;32.85;23.25;;;7.50;85.10;;;;;;6144172;28;20055;-78
2021/03/05 12:31:51;;;;;;;18.67;13.00;;;7.50;89.80;;;;;;6137625;28;20138;-79
2021/03/05 12:34:53;;;;;;;17.73;12.43;;;7.90;90.20;;;;;;6142059;29;20142;-79
2021/03/05 12:37:54;;;;;;;21.65;13.25;;;7.90;88.70;;;;;;6158260;23;20039;-78
2021/03/05 12:40:56;;;;;;;21.73;13.27;;;7.90;86.20;;;;;;6158818;28;20053;-79
2021/03/05 12:43:58;;;;;;;24.10;15.38;;;7.70;85.30;;;;;;6160832;29;20043;-80
2021/03/05 12:46:59;;;;;;;17.38;12.55;;;7.80;87.70;;;;;;6157520;28;20055;-80
2021/03/05 12:50:01;;;;;;;93.13;42.80;;;7.80;87.10;;;;;;6144708;28;20055;-79
2021/03/05 12:53:02;;;;;;;30.30;16.50;;;7.80;87.30;;;;;;6147150;28;20071;-80
2021/03/05 12:56:04;;;;;;;20.05;14.45;;;7.80;84.10;;;;;;6146423;28;20047;-80
2021/03/05 12:59:06;;;;;;;46.70;27.70;;;7.80;85.30;;;;;;6149965;29;20071;-79
2021/03/05 13:02:08;;;;;;;23.90;14.93;;;8.00;84.50;;;;;;6137874;28;20044;-79
2021/03/05 13:05:10;;;;;;;15.35;10.50;;;8.10;84.50;;;;;;6141878;28;20050;-78
2021/03/05 13:08:12;;;;;;;17.45;11.32;;;8.30;85.20;;;;;;6160813;29;20054;-79
2021/03/05 13:11:13;;;;;;;17.17;11.13;;;8.40;84.50;;;;;;6161438;28;20051;-79
2021/03/05 13:14:15;;;;;;;15.25;10.60;;;8.40;82.50;;;;;;6154191;29;20059;-78
2021/03/05 13:17:17;;;;;;;19.85;13.52;;;8.40;82.00;;;;;;6155467;29;20040;-78
2021/03/05 13:20:18;;;;;;;20.23;12.80;;;8.30;80.80;;;;;;6163678;28;20044;-78
2021/03/05 13:23:19;;;;;;;18.10;12.55;;;8.00;79.60;;;;;;6168493;28;20084;-77
2021/03/05 13:26:21;;;;;;;20.80;11.48;;;7.70;80.10;;;;;;6153747;29;20056;-78
2021/03/05 13:29:23;;;;;;;16.45;10.30;;;7.60;83.30;;;;;;6156521;28;20047;-80
2021/03/05 13:32:24;;;;;;;20.20;10.93;;;7.60;83.60;;;;;;6151466;28;20050;-79
2021/03/05 13:35:26;;;;;;;18.30;10.35;;;7.70;84.10;;;;;;6154816;29;20134;-79
2021/03/05 13:38:28;;;;;;;15.18;9.00;;;7.70;83.10;;;;;;6156820;29;20131;-81
2021/03/05 13:41:30;;;;;;;16.48;10.18;;;7.70;81.70;;;;;;6145885;29;20047;-80
2021/03/05 13:44:32;;;;;;;16.75;10.32;;;7.50;82.60;;;;;;6152575;28;20047;-78
2021/03/05 13:47:33;;;;;;;14.50;11.10;;;7.50;83.50;;;;;;6160787;29;20059;-78
2021/03/05 13:50:41;;;;;;;16.75;10.88;;;7.60;84.40;;;;;;6156088;29;20055;-80
2021/03/05 13:53:42;;;;;;;15.98;10.30;;;7.70;83.90;;;;;;6157370;28;20046;-80
2021/03/05 13:56:58;;;;;;;12.00;9.25;;;7.60;83.10;;;;;;6161099;28;20106;-80
2021/03/05 14:00:21;;;;;;;15.68;10.27;;;7.70;82.90;;;;;;6147513;28;20050;-81
2021/03/05 14:03:35;;;;;;;14.15;8.73;;;7.70;81.20;;;;;;6165116;28;20055;-81
2021/03/05 14:06:42;;;;;;;15.20;9.07;;;7.70;81.20;;;;;;6156021;29;20125;-82
2021/03/05 14:09:44;;;;;;;13.40;10.13;;;7.80;83.00;;;;;;6138329;29;20047;-80
2021/03/05 14:12:45;;;;;;;12.48;9.55;;;7.90;79.70;;;;;;6148473;28;20153;-80
2021/03/05 14:15:48;;;;;;;11.93;8.60;;;8.00;79.60;;;;;;6157596;28;20047;-83
2021/03/05 14:18:49;;;;;;;14.60;8.38;;;8.10;78.30;;;;;;6155743;29;20122;-82
2021/03/05 14:21:51;;;;;;;9.40;8.13;;;8.00;76.80;;;;;;6146943;28;20493;-82
2021/03/05 14:24:52;;;;;;;13.98;8.18;;;7.90;77.00;;;;;;6144511;28;20047;-81
2021/03/05 14:27:57;;;;;;;13.48;8.60;;;7.80;77.60;;;;;;6148808;28;20541;-80
2021/03/05 14:30:59;;;;;;;10.88;7.57;;;7.60;78.10;;;;;;6151704;28;20073;-80
2021/03/05 14:34:00;;;;;;;11.52;8.15;;;7.60;78.80;;;;;;6154843;28;20043;-81
2021/03/05 14:37:09;;;;;;;17.67;13.40;;;7.50;78.00;;;;;;6154866;28;20063;-80
2021/03/05 14:40:14;;;;;;;14.55;9.27;;;7.20;78.50;;;;;;6145092;29;20055;-81
2021/03/05 14:43:16;;;;;;;12.25;8.43;;;6.90;80.30;;;;;;6148372;28;20078;-80
2021/03/05 14:46:18;;;;;;;10.45;8.30;;;6.70;81.80;;;;;;6149343;29;20613;-80
2021/03/05 14:49:47;;;;;;;11.38;7.38;;;6.60;83.00;;;;;;6150647;28;20040;-81
2021/03/05 14:52:50;;;;;;;13.32;9.05;;;6.60;83.50;;;;;;6136139;28;20045;-80
2021/03/05 14:56:06;;;;;;;17.50;8.65;;;6.50;84.60;;;;;;6157495;28;20055;-80
2021/03/05 14:59:21;;;;;;;10.30;6.68;;;6.50;84.30;;;;;;6172093;28;20071;-81
2021/03/05 15:02:27;;;;;;;11.93;6.93;;;6.50;85.20;;;;;;6151477;29;20126;-80
2021/03/05 15:05:42;;;;;;;11.55;6.97;;;6.40;83.60;;;;;;6150738;28;20054;-81
2021/03/05 15:08:58;;;;;;;12.18;7.45;;;6.40;85.60;;;;;;6139500;29;20046;-82
2021/03/05 15:12:05;;;;;;;9.75;6.90;;;6.40;86.90;;;;;;6147449;28;20051;-81
2021/03/05 15:15:08;;;;;;;10.38;6.65;;;6.60;86.50;;;;;;6143821;29;20043;-81
2021/03/05 15:18:11;;;;;;;7.25;5.85;;;6.50;86.00;;;;;;6130498;29;20123;-81
2021/03/05 15:21:12;;;;;;;7.80;6.47;;;6.60;85.20;;;;;;6137624;28;20107;-79
2021/03/05 15:24:14;;;;;;;7.78;5.30;;;6.50;85.00;;;;;;6148916;28;20040;-80
2021/03/05 15:27:15;;;;;;;8.60;6.28;;;6.50;85.20;;;;;;6148724;28;20098;-80
2021/03/05 15:30:17;;;;;;;8.52;6.35;;;6.50;83.80;;;;;;6132770;29;20048;-80
2021/03/05 15:33:20;;;;;;;5.57;5.03;;;6.40;84.20;;;;;;6133131;28;20051;-80
2021/03/05 15:36:21;;;;;;;8.95;5.97;;;6.40;83.50;;;;;;6142961;28;20054;-80
2021/03/05 15:39:22;;;;;;;17.15;8.48;;;6.30;83.90;;;;;;6149541;29;20048;-81
2021/03/05 15:42:24;;;;;;;8.57;6.38;;;6.20;87.70;;;;;;6158599;29;20051;-79
2021/03/05 15:45:25;;;;;;;8.98;5.35;;;6.30;85.50;;;;;;6134658;28;20071;-79